createdAt,value
2023-03-08T00:00:15.222Z,44.7
2023-03-08T00:01:31.358Z,44.7
2023-03-08T00:02:47.476Z,44.7
2023-03-08T00:04:03.614Z,44.7
2023-03-08T00:05:19.754Z,44.7
2023-03-08T00:06:35.893Z,44.7
2023-03-08T00:07:52.042Z,44.7
2023-03-08T00:09:08.157Z,44.7
2023-03-08T00:10:24.306Z,44.7
2023-03-08T00:11:40.430Z,44.8
2023-03-08T00:12:56.575Z,44.8
2023-03-08T00:14:12.710Z,44.8
2023-03-08T00:15:28.844Z,44.8
2023-03-08T00:16:44.974Z,44.8
2023-03-08T00:18:01.120Z,44.8
2023-03-08T00:19:17.255Z,44.8
2023-03-08T00:20:33.397Z,44.7
2023-03-08T00:21:49.595Z,44.7
2023-03-08T00:23:04.784Z,44.7
2023-03-08T00:24:20.937Z,44.6
2023-03-08T00:25:37.071Z,44.5
2023-03-08T00:26:53.211Z,44.6
2023-03-08T00:28:09.335Z,44.7
2023-03-08T00:29:25.471Z,44.7
2023-03-08T00:30:41.614Z,44.7
2023-03-08T00:31:57.742Z,44.6
2023-03-08T00:33:13.884Z,44.5
2023-03-08T00:34:30.018Z,44.6
2023-03-08T00:35:46.157Z,44.6
2023-03-08T00:37:02.305Z,44.6
2023-03-08T00:38:18.425Z,44.5
2023-03-08T00:39:34.566Z,44.6
2023-03-08T00:40:50.701Z,44.6
2023-03-08T00:42:06.839Z,44.7
2023-03-08T00:43:22.989Z,44.7
2023-03-08T00:44:39.106Z,44.7
2023-03-08T00:45:55.238Z,44.7
2023-03-08T00:47:11.383Z,44.7
2023-03-08T00:48:27.515Z,44.7
2023-03-08T00:49:43.671Z,44.7
2023-03-08T00:50:59.790Z,44.7
2023-03-08T00:52:15.921Z,44.6
2023-03-08T00:53:32.066Z,44.7
2023-03-08T00:54:48.249Z,44.7
2023-03-08T00:56:03.525Z,44.7
2023-03-08T00:57:18.765Z,44.7
2023-03-08T00:58:33.977Z,44.7
2023-03-08T00:59:50.108Z,44.6
2023-03-08T01:01:06.246Z,44.6
2023-03-08T01:02:22.378Z,44.6
2023-03-08T01:03:38.509Z,44.6
2023-03-08T01:04:54.657Z,44.6
2023-03-08T01:06:10.792Z,44.6
2023-03-08T01:07:26.915Z,44.7
2023-03-08T01:08:43.050Z,44.6
2023-03-08T01:09:59.188Z,44.6
2023-03-08T01:11:15.347Z,44.6
2023-03-08T01:12:31.481Z,44.5
2023-03-08T01:13:47.609Z,44.5
2023-03-08T01:15:03.748Z,44.5
2023-03-08T01:16:19.879Z,44.4
2023-03-08T01:17:36.019Z,44.5
2023-03-08T01:18:52.153Z,44.5
2023-03-08T01:20:08.283Z,44.4
2023-03-08T01:21:24.421Z,44.3
2023-03-08T01:22:40.558Z,44.4
2023-03-08T01:23:56.708Z,44.4
2023-03-08T01:25:12.830Z,44.3
2023-03-08T01:26:28.962Z,44.3
2023-03-08T01:27:45.106Z,44.3
2023-03-08T01:29:01.226Z,44.4
2023-03-08T01:30:17.445Z,44.3
2023-03-08T01:31:32.648Z,44.3
2023-03-08T01:32:47.790Z,44.4
2023-03-08T01:34:03.949Z,44.3
2023-03-08T01:35:20.084Z,44.3
2023-03-08T01:36:36.210Z,44.4
2023-03-08T01:37:52.351Z,44.4
2023-03-08T01:39:08.479Z,44.3
2023-03-08T01:40:24.630Z,44.4
2023-03-08T01:41:40.764Z,44.4
2023-03-08T01:42:56.891Z,44.4
2023-03-08T01:44:13.033Z,44.4
2023-03-08T01:45:29.169Z,44.3
2023-03-08T01:46:45.303Z,44.4
2023-03-08T01:48:01.445Z,44.4
2023-03-08T01:49:17.586Z,44.4
2023-03-08T01:50:33.710Z,44.3
2023-03-08T01:51:49.845Z,44.3
2023-03-08T01:53:05.982Z,44.3
2023-03-08T01:54:22.131Z,44.3
2023-03-08T01:55:38.255Z,44.3
2023-03-08T01:56:54.389Z,44.2
2023-03-08T01:58:10.519Z,44.2
2023-03-08T01:59:26.665Z,44.3
2023-03-08T02:00:42.814Z,44.3
2023-03-08T02:01:58.935Z,44.4
2023-03-08T02:03:15.065Z,44.4
2023-03-08T02:04:31.203Z,44.4
2023-03-08T02:05:47.349Z,44.3
2023-03-08T02:07:03.490Z,44.3
2023-03-08T02:08:19.620Z,44.3
2023-03-08T02:09:35.746Z,44.4
2023-03-08T02:10:51.878Z,44.3
2023-03-08T02:12:08.039Z,44.3
2023-03-08T02:13:24.172Z,44.3
2023-03-08T02:14:40.295Z,44.3
2023-03-08T02:15:56.424Z,44.3
2023-03-08T02:17:12.563Z,44.3
2023-03-08T02:18:28.716Z,44.3
2023-03-08T02:19:44.910Z,44.3
2023-03-08T02:21:00.137Z,44.3
2023-03-08T02:22:15.355Z,44.2
2023-03-08T02:23:31.487Z,44.3
2023-03-08T02:24:47.620Z,44.3
2023-03-08T02:26:03.744Z,44.3
2023-03-08T02:27:19.885Z,44.3
2023-03-08T02:28:36.035Z,44.2
2023-03-08T02:29:52.170Z,44.2
2023-03-08T02:31:08.300Z,44.2
2023-03-08T02:32:24.426Z,44.3
2023-03-08T02:33:40.569Z,44.3
2023-03-08T02:34:56.714Z,44.3
2023-03-08T02:36:12.854Z,44.3
2023-03-08T02:37:28.983Z,44.4
2023-03-08T02:38:45.111Z,44.4
2023-03-08T02:40:01.243Z,44.4
2023-03-08T02:41:17.404Z,44.4
2023-03-08T02:42:33.533Z,44.4
2023-03-08T02:43:49.659Z,44.3
2023-03-08T02:45:05.806Z,44.3
2023-03-08T02:46:21.939Z,44.2
2023-03-08T02:47:38.069Z,44.2
2023-03-08T02:48:54.213Z,44.2
2023-03-08T02:50:10.348Z,44.1
2023-03-08T02:51:26.481Z,44.1
2023-03-08T02:52:42.612Z,44.2
2023-03-08T02:53:58.818Z,44.2
2023-03-08T02:55:14.056Z,44.1
2023-03-08T02:56:29.269Z,44.2
2023-03-08T02:57:45.416Z,44.2
2023-03-08T02:59:01.539Z,44.2
2023-03-08T03:00:17.000Z,44.1
2023-03-08T03:01:33.814Z,44.1
2023-03-08T03:02:49.944Z,44.1
2023-03-08T03:04:06.092Z,44.1
2023-03-08T03:05:22.225Z,44.1
2023-03-08T03:06:38.345Z,44.1
2023-03-08T03:07:54.485Z,44.1
2023-03-08T03:09:10.616Z,44
2023-03-08T03:10:26.762Z,44
2023-03-08T03:11:42.892Z,44
2023-03-08T03:12:59.036Z,44
2023-03-08T03:14:15.176Z,44.1
2023-03-08T03:15:31.310Z,44.1
2023-03-08T03:16:47.448Z,44.1
2023-03-08T03:18:03.576Z,44
2023-03-08T03:19:19.719Z,44
2023-03-08T03:20:35.840Z,44
2023-03-08T03:21:51.980Z,44
2023-03-08T03:23:08.122Z,44
2023-03-08T03:24:24.259Z,44
2023-03-08T03:25:40.396Z,44
2023-03-08T03:26:56.522Z,44
2023-03-08T03:28:12.713Z,44
2023-03-08T03:29:27.951Z,44.1
2023-03-08T03:30:43.163Z,44.1
2023-03-08T03:31:58.322Z,43.9
2023-03-08T03:33:14.450Z,43.9
2023-03-08T03:34:30.589Z,44
2023-03-08T03:35:46.706Z,43.9
2023-03-08T03:37:02.858Z,44
2023-03-08T03:38:18.988Z,44
2023-03-08T03:39:35.133Z,44
2023-03-08T03:40:51.256Z,44
2023-03-08T03:42:07.394Z,44
2023-03-08T03:43:23.535Z,44
2023-03-08T03:44:39.678Z,44
2023-03-08T03:45:55.805Z,44.1
2023-03-08T03:47:11.938Z,44.1
2023-03-08T03:48:28.078Z,44
2023-03-08T03:49:44.201Z,44
2023-03-08T03:51:00.362Z,44
2023-03-08T03:52:16.498Z,43.9
2023-03-08T03:53:32.620Z,43.9
2023-03-08T03:54:48.754Z,43.9
2023-03-08T03:56:04.889Z,43.8
2023-03-08T03:57:21.036Z,43.8
2023-03-08T03:58:37.170Z,43.8
2023-03-08T03:59:53.303Z,43.8
2023-03-08T04:01:09.438Z,43.8
2023-03-08T04:02:25.573Z,43.8
2023-03-08T04:03:41.707Z,43.8
2023-03-08T04:04:57.840Z,43.8
2023-03-08T04:06:13.985Z,43.8
2023-03-08T04:07:30.115Z,43.8
2023-03-08T04:08:46.257Z,43.8
2023-03-08T04:10:02.394Z,43.8
2023-03-08T04:11:18.525Z,43.7
2023-03-08T04:12:34.672Z,43.7
2023-03-08T04:13:50.795Z,43.8
2023-03-08T04:15:06.924Z,43.9
2023-03-08T04:16:23.085Z,43.8
2023-03-08T04:17:39.216Z,43.8
2023-03-08T04:18:55.402Z,43.7
2023-03-08T04:20:10.636Z,43.8
2023-03-08T04:21:25.857Z,43.9
2023-03-08T04:22:41.989Z,43.9
2023-03-08T04:23:58.114Z,43.9
2023-03-08T04:25:14.247Z,43.8
2023-03-08T04:26:30.390Z,43.8
2023-03-08T04:27:46.523Z,43.7
2023-03-08T04:29:02.662Z,43.7
2023-03-08T04:30:18.803Z,43.7
2023-03-08T04:31:34.937Z,43.8
2023-03-08T04:32:51.090Z,43.8
2023-03-08T04:34:07.212Z,43.8
2023-03-08T04:35:23.342Z,43.8
2023-03-08T04:36:39.485Z,43.8
2023-03-08T04:37:55.606Z,43.9
2023-03-08T04:39:11.760Z,43.8
2023-03-08T04:40:27.907Z,43.8
2023-03-08T04:41:44.031Z,43.9
2023-03-08T04:43:00.160Z,43.8
2023-03-08T04:44:16.300Z,43.8
2023-03-08T04:45:32.444Z,44
2023-03-08T04:46:48.570Z,43.9
2023-03-08T04:48:04.706Z,44
2023-03-08T04:49:20.857Z,43.9
2023-03-08T04:50:36.980Z,44
2023-03-08T04:51:53.131Z,43.9
2023-03-08T04:53:09.319Z,43.9
2023-03-08T04:54:24.567Z,43.8
2023-03-08T04:55:39.778Z,43.9
2023-03-08T04:56:55.908Z,43.8
2023-03-08T04:58:12.036Z,43.8
2023-03-08T04:59:28.167Z,43.9
2023-03-08T05:00:44.299Z,43.8
2023-03-08T05:02:00.454Z,43.9
2023-03-08T05:03:16.594Z,43.8
2023-03-08T05:04:32.723Z,43.7
2023-03-08T05:05:48.856Z,43.9
2023-03-08T05:07:04.978Z,43.8
2023-03-08T05:08:21.139Z,44
2023-03-08T05:09:37.269Z,43.9
2023-03-08T05:10:53.406Z,44
2023-03-08T05:12:09.525Z,44
2023-03-08T05:13:25.672Z,43.9
2023-03-08T05:14:41.812Z,43.9
2023-03-08T05:15:57.958Z,43.9
2023-03-08T05:17:14.078Z,44
2023-03-08T05:18:30.216Z,44
2023-03-08T05:19:46.342Z,43.9
2023-03-08T05:21:02.487Z,43.9
2023-03-08T05:22:18.626Z,44
2023-03-08T05:23:34.765Z,44
2023-03-08T05:24:50.905Z,44
2023-03-08T05:26:07.042Z,44
2023-03-08T05:27:23.241Z,44.1
2023-03-08T05:28:38.491Z,44.1
2023-03-08T05:29:53.707Z,44
2023-03-08T05:31:09.843Z,44.1
2023-03-08T05:32:25.992Z,44
2023-03-08T05:33:42.111Z,44
2023-03-08T05:34:58.256Z,44
2023-03-08T05:36:14.379Z,44
2023-03-08T05:37:30.532Z,43.9
2023-03-08T05:38:46.664Z,44
2023-03-08T05:40:02.800Z,43.9
2023-03-08T05:41:18.931Z,44
2023-03-08T05:42:35.073Z,43.9
2023-03-08T05:43:51.218Z,44
2023-03-08T05:45:07.339Z,43.9
2023-03-08T05:46:23.473Z,43.9
2023-03-08T05:47:39.611Z,44
2023-03-08T05:48:55.745Z,44
2023-03-08T05:50:11.899Z,44.1
2023-03-08T05:51:28.028Z,44.1
2023-03-08T05:52:44.167Z,44.1
2023-03-08T05:54:00.305Z,44.1
2023-03-08T05:55:16.425Z,44.1
2023-03-08T05:56:32.587Z,44.1
2023-03-08T05:57:48.710Z,44.3
2023-03-08T05:59:04.843Z,44.3
2023-03-08T06:00:20.984Z,44.3
2023-03-08T06:01:37.163Z,44.2
2023-03-08T06:02:52.416Z,44.3
2023-03-08T06:04:08.600Z,44.2
2023-03-08T06:05:23.820Z,44.2
2023-03-08T06:06:39.944Z,44.3
2023-03-08T06:07:56.087Z,44.3
2023-03-08T06:09:12.224Z,44.3
2023-03-08T06:10:28.347Z,44.3
2023-03-08T06:11:44.478Z,44.4
2023-03-08T06:13:00.643Z,44.4
2023-03-08T06:14:16.778Z,44.4
2023-03-08T06:15:32.901Z,44.5
2023-03-08T06:16:49.032Z,44.4
2023-03-08T06:18:05.162Z,44.4
2023-03-08T06:19:21.323Z,44.4
2023-03-08T06:20:37.451Z,44.4
2023-03-08T06:21:53.596Z,44.4
2023-03-08T06:23:09.727Z,44.3
2023-03-08T06:24:25.850Z,44.3
2023-03-08T06:25:42.010Z,44.3
2023-03-08T06:26:58.138Z,44.4
2023-03-08T06:28:14.273Z,44.4
2023-03-08T06:29:30.397Z,44.3
2023-03-08T06:30:46.534Z,44.3
2023-03-08T06:32:02.684Z,44.2
2023-03-08T06:33:18.813Z,44.2
2023-03-08T06:34:34.950Z,44.2
2023-03-08T06:35:51.085Z,44.2
2023-03-08T06:37:07.270Z,44.1
2023-03-08T06:38:22.515Z,44.1
2023-03-08T06:39:37.726Z,44.1
2023-03-08T06:40:53.864Z,44
2023-03-08T06:42:10.011Z,44
2023-03-08T06:43:26.129Z,44
2023-03-08T06:44:42.281Z,43.9
2023-03-08T06:45:58.403Z,43.9
2023-03-08T06:47:14.543Z,44
2023-03-08T06:48:30.677Z,44
2023-03-08T06:49:46.830Z,44
2023-03-08T06:51:02.950Z,44
2023-03-08T06:52:19.093Z,43.9
2023-03-08T06:53:35.230Z,43.9
2023-03-08T06:54:51.364Z,43.9
2023-03-08T06:56:07.511Z,43.9
2023-03-08T06:57:23.638Z,43.8
2023-03-08T06:58:39.765Z,43.7
2023-03-08T06:59:55.900Z,43.8
2023-03-08T07:01:12.049Z,43.7
2023-03-08T07:02:28.176Z,43.7
2023-03-08T07:03:44.317Z,43.6
2023-03-08T07:05:00.449Z,43.5
2023-03-08T07:06:16.584Z,43.4
2023-03-08T07:07:32.728Z,43.6
2023-03-08T07:08:48.854Z,43.5
2023-03-08T07:10:04.988Z,43.5
2023-03-08T07:11:21.176Z,43.4
2023-03-08T07:12:36.421Z,43.4
2023-03-08T07:13:51.631Z,43.5
2023-03-08T07:15:06.781Z,43.4
2023-03-08T07:16:22.920Z,43.5
2023-03-08T07:17:39.058Z,43.6
2023-03-08T07:18:55.185Z,43.6
2023-03-08T07:20:11.336Z,43.5
2023-03-08T07:21:27.459Z,43.5
2023-03-08T07:22:43.610Z,43.4
2023-03-08T07:23:59.740Z,43.4
2023-03-08T07:25:15.880Z,43.4
2023-03-08T07:26:32.004Z,43.4
2023-03-08T07:27:48.136Z,43.3
2023-03-08T07:29:04.279Z,43.4
2023-03-08T07:30:20.410Z,43.3
2023-03-08T07:31:36.558Z,43.3
2023-03-08T07:32:52.676Z,43.1
2023-03-08T07:34:08.829Z,43.1
2023-03-08T07:35:24.976Z,43.1
2023-03-08T07:36:41.096Z,43.1
2023-03-08T07:37:57.235Z,43.1
2023-03-08T07:39:13.365Z,43
2023-03-08T07:40:29.498Z,42.9
2023-03-08T07:41:45.649Z,42.7
2023-03-08T07:43:01.784Z,42.7
2023-03-08T07:44:17.916Z,42.7
2023-03-08T07:45:34.054Z,42.5
2023-03-08T07:46:50.188Z,42.6
2023-03-08T07:48:06.327Z,42.6
2023-03-08T07:49:22.454Z,42.7
2023-03-08T07:50:38.592Z,42.7
2023-03-08T07:51:54.731Z,42.8
2023-03-08T07:53:10.868Z,42.8
2023-03-08T07:54:27.013Z,42.7
2023-03-08T07:55:43.143Z,42.6
2023-03-08T07:56:59.274Z,42.7
2023-03-08T07:58:15.402Z,42.6
2023-03-08T07:59:31.534Z,42.6
2023-03-08T08:00:47.676Z,42.6
2023-03-08T08:02:03.871Z,42.6
2023-03-08T08:03:19.117Z,42.6
2023-03-08T08:04:34.318Z,42.6
2023-03-08T08:05:50.452Z,42.6
2023-03-08T08:07:06.587Z,42.6
2023-03-08T08:08:22.729Z,42.6
2023-03-08T08:09:38.862Z,42.5
2023-03-08T08:10:55.001Z,42.5
2023-03-08T08:12:11.129Z,42.4
2023-03-08T08:13:27.269Z,42.5
2023-03-08T08:14:43.399Z,42.3
2023-03-08T08:15:59.539Z,42.4
2023-03-08T08:17:15.677Z,42.3
2023-03-08T08:18:31.815Z,42.3
2023-03-08T08:19:47.940Z,42
2023-03-08T08:21:04.091Z,42.1
2023-03-08T08:22:20.209Z,41.9
2023-03-08T08:23:36.356Z,41.8
2023-03-08T08:24:52.500Z,41.7
2023-03-08T08:26:08.619Z,41.5
2023-03-08T08:27:24.755Z,41.4
2023-03-08T08:28:40.894Z,41.4
2023-03-08T08:29:57.044Z,41.4
2023-03-08T08:31:13.176Z,41.4
2023-03-08T08:32:29.316Z,41.4
2023-03-08T08:33:45.432Z,41.4
2023-03-08T08:35:01.582Z,41.4
2023-03-08T08:36:17.779Z,41.4
2023-03-08T08:37:33.012Z,41.4
2023-03-08T08:38:49.208Z,41.4
2023-03-08T08:40:04.416Z,41.4
2023-03-08T08:41:20.558Z,41.4
2023-03-08T08:42:36.680Z,41.4
2023-03-08T08:43:52.826Z,41.4
2023-03-08T08:45:08.945Z,41.4
2023-03-08T08:46:25.097Z,41.4
2023-03-08T08:47:41.230Z,41.5
2023-03-08T08:48:57.362Z,41.6
2023-03-08T08:50:13.490Z,41.7
2023-03-08T08:51:29.630Z,41.6
2023-03-08T08:52:45.782Z,41.6
2023-03-08T08:54:01.912Z,41.6
2023-03-08T08:55:18.051Z,41.6
2023-03-08T08:56:34.185Z,41.7
2023-03-08T08:57:50.300Z,41.6
2023-03-08T08:59:06.469Z,41.6
2023-03-08T09:00:22.589Z,41.7
2023-03-08T09:01:38.729Z,41.6
2023-03-08T09:02:54.867Z,41.6
2023-03-08T09:04:10.997Z,41.6
2023-03-08T09:05:27.148Z,41.6
2023-03-08T09:06:43.266Z,41.6
2023-03-08T09:07:59.407Z,41.6
2023-03-08T09:09:15.528Z,41.6
2023-03-08T09:10:31.671Z,41.6
2023-03-08T09:11:47.874Z,41.5
2023-03-08T09:13:03.108Z,41.6
2023-03-08T09:14:18.324Z,41.5
2023-03-08T09:15:34.476Z,41.4
2023-03-08T09:16:50.596Z,41.5
2023-03-08T09:18:06.731Z,41.4
2023-03-08T09:19:22.869Z,41.3
2023-03-08T09:20:39.001Z,41.2
2023-03-08T09:21:55.151Z,41.2
2023-03-08T09:23:11.289Z,41.2
2023-03-08T09:24:27.423Z,41.3
2023-03-08T09:25:43.548Z,41.3
2023-03-08T09:26:59.689Z,41.2
2023-03-08T09:28:15.832Z,41.3
2023-03-08T09:29:31.957Z,41
2023-03-08T09:30:48.102Z,41
2023-03-08T09:32:04.225Z,41.1
2023-03-08T09:33:20.359Z,41.2
2023-03-08T09:34:36.513Z,41
2023-03-08T09:35:52.646Z,41
2023-03-08T09:37:08.780Z,40.9
2023-03-08T09:38:24.911Z,40.7
2023-03-08T09:39:41.042Z,40.9
2023-03-08T09:40:57.183Z,40.9
2023-03-08T09:42:13.328Z,40.7
2023-03-08T09:43:29.457Z,40.9
2023-03-08T09:44:45.585Z,40.9
2023-03-08T09:46:01.775Z,40.9
2023-03-08T09:47:17.031Z,40.7
2023-03-08T09:48:32.246Z,40.7
2023-03-08T09:49:48.386Z,40.9
2023-03-08T09:51:04.529Z,40.7
2023-03-08T09:52:20.666Z,40.6
2023-03-08T09:53:36.797Z,40.7
2023-03-08T09:54:52.930Z,40.7
2023-03-08T09:56:09.050Z,40.6
2023-03-08T09:57:25.204Z,40.7
2023-03-08T09:58:41.346Z,40.6
2023-03-08T09:59:57.467Z,40.5
2023-03-08T10:01:13.603Z,40.6
2023-03-08T10:02:29.750Z,40.5
2023-03-08T10:03:45.892Z,40.5
2023-03-08T10:05:02.020Z,40.6
2023-03-08T10:06:18.147Z,40.5
2023-03-08T10:07:34.282Z,40.4
2023-03-08T10:08:50.424Z,40.5
2023-03-08T10:10:06.578Z,40.5
2023-03-08T10:11:22.705Z,40.4
2023-03-08T10:12:38.829Z,40.4
2023-03-08T10:13:54.974Z,40.4
2023-03-08T10:15:11.103Z,40.2
2023-03-08T10:16:27.248Z,40.3
2023-03-08T10:17:43.383Z,40.4
2023-03-08T10:18:59.525Z,40.4
2023-03-08T10:20:15.701Z,40.1
2023-03-08T10:21:30.952Z,40.3
2023-03-08T10:22:47.135Z,40.3
2023-03-08T10:24:02.350Z,40.2
2023-03-08T10:25:18.482Z,40.3
2023-03-08T10:26:34.629Z,40.4
2023-03-08T10:27:50.766Z,40.3
2023-03-08T10:29:06.898Z,40.2
2023-03-08T10:30:23.029Z,40.2
2023-03-08T10:31:39.154Z,40.2
2023-03-08T10:32:55.301Z,40.2
2023-03-08T10:34:11.434Z,40
2023-03-08T10:35:27.581Z,40
2023-03-08T10:36:43.704Z,40
2023-03-08T10:37:59.837Z,40
2023-03-08T10:39:15.987Z,39.7
2023-03-08T10:40:32.120Z,39.8
2023-03-08T10:41:48.250Z,39.9
2023-03-08T10:43:04.377Z,39.8
2023-03-08T10:44:20.514Z,39.9
2023-03-08T10:45:36.661Z,39.7
2023-03-08T10:46:52.804Z,40
2023-03-08T10:48:08.937Z,39.9
2023-03-08T10:49:25.072Z,40
2023-03-08T10:50:41.190Z,39.9
2023-03-08T10:51:57.344Z,40
2023-03-08T10:53:13.478Z,39.9
2023-03-08T10:54:29.612Z,39.8
2023-03-08T10:55:45.805Z,40
2023-03-08T10:57:01.041Z,40
2023-03-08T10:58:16.242Z,40
2023-03-08T10:59:31.392Z,40.1
2023-03-08T11:00:47.545Z,40
2023-03-08T11:02:03.674Z,40.1
2023-03-08T11:03:19.812Z,40.2
2023-03-08T11:04:35.949Z,40.2
2023-03-08T11:05:52.081Z,40.1
2023-03-08T11:07:08.238Z,40.2
2023-03-08T11:08:24.360Z,40.2
2023-03-08T11:09:40.497Z,40.1
2023-03-08T11:10:56.620Z,40.2
2023-03-08T11:12:12.771Z,40.2
2023-03-08T11:13:28.917Z,40.2
2023-03-08T11:14:45.041Z,40
2023-03-08T11:16:01.181Z,40.1
2023-03-08T11:17:17.312Z,40
2023-03-08T11:18:33.438Z,40.2
2023-03-08T11:19:49.598Z,40.2
2023-03-08T11:21:05.729Z,40.2
2023-03-08T11:22:21.846Z,40.1
2023-03-08T11:23:37.989Z,40.1
2023-03-08T11:24:54.114Z,40.2
2023-03-08T11:26:10.272Z,40.2
2023-03-08T11:27:26.408Z,40
2023-03-08T11:28:42.539Z,40.1
2023-03-08T11:29:58.663Z,40.2
2023-03-08T11:31:14.807Z,40.1
2023-03-08T11:32:30.953Z,40.1
2023-03-08T11:33:47.074Z,39.9
2023-03-08T11:35:03.223Z,40.2
2023-03-08T11:36:19.355Z,40.2
2023-03-08T11:37:35.473Z,40.1
2023-03-08T11:38:51.626Z,40.1
2023-03-08T11:40:07.756Z,40.1
2023-03-08T11:41:23.899Z,40
2023-03-08T11:42:40.024Z,40.1
2023-03-08T11:43:56.166Z,40.2
2023-03-08T11:45:12.300Z,40
2023-03-08T11:46:28.509Z,40
2023-03-08T11:47:43.751Z,40.4
2023-03-08T11:48:58.950Z,40.1
2023-03-08T11:50:15.072Z,40.4
2023-03-08T11:51:31.223Z,40.3
2023-03-08T11:52:47.343Z,40.6
2023-03-08T11:54:03.485Z,40.6
2023-03-08T11:55:19.637Z,40.6
2023-03-08T11:56:35.760Z,40.6
2023-03-08T11:57:51.902Z,40.6
2023-03-08T11:59:08.025Z,40.4
2023-03-08T12:00:24.152Z,40.5
2023-03-08T12:01:40.311Z,40.6
2023-03-08T12:02:56.432Z,40.5
2023-03-08T12:04:12.569Z,40.5
2023-03-08T12:05:28.708Z,40.5
2023-03-08T12:06:44.841Z,40.5
2023-03-08T12:08:00.985Z,40.5
2023-03-08T12:09:17.112Z,40.4
2023-03-08T12:10:33.253Z,40.5
2023-03-08T12:11:49.389Z,40.4
2023-03-08T12:13:05.531Z,40.3
2023-03-08T12:14:21.678Z,40.4
2023-03-08T12:15:37.794Z,40.5
2023-03-08T12:16:53.937Z,40.5
2023-03-08T12:18:10.067Z,40.5
2023-03-08T12:19:26.196Z,40.4
2023-03-08T12:20:42.403Z,40.4
2023-03-08T12:21:57.641Z,40.2
2023-03-08T12:23:12.859Z,40.4
2023-03-08T12:24:28.998Z,40.2
2023-03-08T12:25:45.121Z,40.2
2023-03-08T12:27:01.265Z,40.2
2023-03-08T12:28:17.397Z,40.4
2023-03-08T12:29:33.527Z,40.4
2023-03-08T12:30:49.675Z,40.4
2023-03-08T12:32:05.817Z,40.4
2023-03-08T12:33:21.953Z,40.4
2023-03-08T12:34:38.071Z,40.4
2023-03-08T12:35:54.216Z,40.5
2023-03-08T12:37:10.357Z,40.6
2023-03-08T12:38:26.492Z,40.5
2023-03-08T12:39:42.628Z,40.6
2023-03-08T12:40:58.749Z,40.6
2023-03-08T12:42:14.893Z,40.4
2023-03-08T12:43:31.042Z,40.5
2023-03-08T12:44:47.173Z,40.6
2023-03-08T12:46:03.306Z,40.6
2023-03-08T12:47:19.438Z,40.6
2023-03-08T12:48:35.571Z,40.6
2023-03-08T12:49:51.726Z,40.7
2023-03-08T12:51:07.858Z,40.8
2023-03-08T12:52:23.995Z,40.8
2023-03-08T12:53:40.127Z,40.7
2023-03-08T12:54:56.319Z,40.8
2023-03-08T12:56:11.552Z,40.8
2023-03-08T12:57:26.827Z,40.9
2023-03-08T12:58:42.058Z,40.9
2023-03-08T12:59:57.270Z,40.9
2023-03-08T13:01:12.415Z,40.9
2023-03-08T13:02:28.571Z,40.7
2023-03-08T13:03:44.692Z,40.9
2023-03-08T13:05:00.831Z,40.9
2023-03-08T13:06:16.971Z,41
2023-03-08T13:07:33.090Z,41
2023-03-08T13:08:49.248Z,41
2023-03-08T13:10:05.375Z,40.9
2023-03-08T13:11:21.505Z,41
2023-03-08T13:12:37.646Z,40.9
2023-03-08T13:13:53.774Z,41
2023-03-08T13:15:09.932Z,40.9
2023-03-08T13:16:26.064Z,41
2023-03-08T13:17:42.191Z,40.9
2023-03-08T13:18:58.312Z,40.8
2023-03-08T13:20:14.454Z,40.9
2023-03-08T13:21:30.610Z,41
2023-03-08T13:22:46.739Z,40.9
2023-03-08T13:24:02.872Z,40.9
2023-03-08T13:25:18.993Z,40.9
2023-03-08T13:26:35.129Z,41
2023-03-08T13:27:51.291Z,41.2
2023-03-08T13:29:07.423Z,41.2
2023-03-08T13:30:23.540Z,41.2
2023-03-08T13:31:39.687Z,41.2
2023-03-08T13:32:55.810Z,41.4
2023-03-08T13:34:11.964Z,41.4
2023-03-08T13:35:28.091Z,41.4
2023-03-08T13:36:44.236Z,41.5
2023-03-08T13:38:00.370Z,41.4
2023-03-08T13:39:16.498Z,41.4
2023-03-08T13:40:32.649Z,41.4
2023-03-08T13:41:48.771Z,41.5
2023-03-08T13:43:04.907Z,41.4
2023-03-08T13:44:21.041Z,41.4
2023-03-08T13:45:37.178Z,41.5
2023-03-08T13:46:53.316Z,41.5
2023-03-08T13:48:09.511Z,41.6
2023-03-08T13:49:24.714Z,41.6
2023-03-08T13:50:40.860Z,41.7
2023-03-08T13:51:56.993Z,41.6
2023-03-08T13:53:13.135Z,41.6
2023-03-08T13:54:29.274Z,41.6
2023-03-08T13:55:45.404Z,41.7
2023-03-08T13:57:01.526Z,41.7
2023-03-08T13:58:17.692Z,41.6
2023-03-08T13:59:33.810Z,41.6
2023-03-08T14:00:49.946Z,41.6
2023-03-08T14:02:06.086Z,41.5
2023-03-08T14:03:22.222Z,41.6
2023-03-08T14:04:38.366Z,41.6
2023-03-08T14:05:54.484Z,41.6
2023-03-08T14:07:10.622Z,41.6
2023-03-08T14:08:26.762Z,41.7
2023-03-08T14:09:42.897Z,41.7
2023-03-08T14:10:59.034Z,41.7
2023-03-08T14:12:15.172Z,41.7
2023-03-08T14:13:31.315Z,41.8
2023-03-08T14:14:47.450Z,41.7
2023-03-08T14:16:03.580Z,41.7
2023-03-08T14:17:19.712Z,41.7
2023-03-08T14:18:35.861Z,41.7
2023-03-08T14:19:51.991Z,41.7
2023-03-08T14:21:08.184Z,41.6
2023-03-08T14:22:23.436Z,41.6
2023-03-08T14:23:38.638Z,41.7
2023-03-08T14:24:53.799Z,41.7
2023-03-08T14:26:09.940Z,41.8
2023-03-08T14:27:26.073Z,41.8
2023-03-08T14:28:42.217Z,41.8
2023-03-08T14:29:58.332Z,41.7
2023-03-08T14:31:14.469Z,41.8
2023-03-08T14:32:30.626Z,41.8
2023-03-08T14:33:46.765Z,41.8
2023-03-08T14:35:02.885Z,41.8
2023-03-08T14:36:19.017Z,41.8
2023-03-08T14:37:35.162Z,41.8
2023-03-08T14:38:51.306Z,41.9
2023-03-08T14:40:07.445Z,41.9
2023-03-08T14:41:23.576Z,41.9
2023-03-08T14:42:39.710Z,41.9
2023-03-08T14:43:55.833Z,41.8
2023-03-08T14:45:11.985Z,42
2023-03-08T14:46:28.107Z,42
2023-03-08T14:47:44.248Z,41.9
2023-03-08T14:49:00.390Z,41.9
2023-03-08T14:50:16.518Z,42
2023-03-08T14:51:32.656Z,42.1
2023-03-08T14:52:48.786Z,42.1
2023-03-08T14:54:04.935Z,42.1
2023-03-08T14:55:21.070Z,42.1
2023-03-08T14:56:37.198Z,42
2023-03-08T14:57:53.346Z,42
2023-03-08T14:59:09.467Z,42
2023-03-08T15:00:25.597Z,42.1
2023-03-08T15:01:41.749Z,42
2023-03-08T15:02:57.869Z,42.1
2023-03-08T15:04:14.021Z,42
2023-03-08T15:05:30.157Z,42
2023-03-08T15:06:46.281Z,42
2023-03-08T15:08:02.427Z,42.1
2023-03-08T15:09:18.549Z,42.1
2023-03-08T15:10:34.694Z,42.3
2023-03-08T15:11:50.900Z,42.1
2023-03-08T15:13:06.141Z,42.3
2023-03-08T15:15:37.474Z,42.3
2023-03-08T15:16:53.611Z,42.4
2023-03-08T15:18:09.734Z,42.5
2023-03-08T15:19:25.877Z,42.4
2023-03-08T15:20:42.021Z,42.4
2023-03-08T15:21:58.148Z,42.5
2023-03-08T15:23:14.277Z,42.4
2023-03-08T15:24:30.413Z,42.5
2023-03-08T15:25:46.545Z,42.5
2023-03-08T15:27:02.702Z,42.5
2023-03-08T15:28:18.825Z,42.5
2023-03-08T15:29:34.966Z,42.1
2023-03-08T15:30:51.106Z,42
2023-03-08T15:32:07.236Z,42.1
2023-03-08T15:33:23.383Z,42.5
2023-03-08T15:34:39.514Z,42.5
2023-03-08T15:35:55.636Z,42.5
2023-03-08T15:37:11.768Z,42.6
2023-03-08T15:38:27.909Z,42.5
2023-03-08T15:39:44.066Z,42.7
2023-03-08T15:41:00.188Z,42.6
2023-03-08T15:42:16.320Z,42.7
2023-03-08T15:43:32.454Z,42.7
2023-03-08T15:44:48.592Z,42.6
2023-03-08T15:46:04.800Z,42.6
2023-03-08T15:47:20.028Z,42.6
2023-03-08T15:48:35.249Z,42.5
2023-03-08T15:49:51.386Z,42.6
2023-03-08T15:51:07.507Z,42.6
2023-03-08T15:52:23.652Z,42.6
2023-03-08T15:53:39.778Z,42.6
2023-03-08T15:54:55.923Z,42.5
2023-03-08T15:56:12.071Z,42.6
2023-03-08T15:57:28.197Z,42.5
2023-03-08T15:58:44.329Z,42.6
2023-03-08T16:00:00.468Z,42.6
2023-03-08T16:01:16.600Z,42.5
2023-03-08T16:02:32.734Z,42.5
2023-03-08T16:03:48.877Z,42.6
2023-03-08T16:05:05.008Z,42.6
2023-03-08T16:06:21.148Z,42.7
2023-03-08T16:07:37.269Z,42.7
2023-03-08T16:08:53.414Z,42.8
2023-03-08T16:10:09.560Z,42.7
2023-03-08T16:11:25.693Z,42.8
2023-03-08T16:12:41.820Z,42.7
2023-03-08T16:13:57.950Z,42.8
2023-03-08T16:15:14.089Z,42.8
2023-03-08T16:16:30.231Z,42.8
2023-03-08T16:17:46.370Z,42.9
2023-03-08T16:19:02.494Z,42.8
2023-03-08T16:20:18.696Z,42.9
2023-03-08T16:21:33.929Z,42.8
2023-03-08T16:22:50.126Z,42.8
2023-03-08T16:24:05.318Z,42.9
2023-03-08T16:25:21.477Z,42.8
2023-03-08T16:26:37.606Z,42.8
2023-03-08T16:27:53.731Z,42.9
2023-03-08T16:29:09.864Z,42.9
2023-03-08T16:30:25.996Z,42.9
2023-03-08T16:31:42.156Z,42.8
2023-03-08T16:32:58.273Z,42.8
2023-03-08T16:34:14.415Z,42.8
2023-03-08T16:35:30.553Z,42.9
2023-03-08T16:36:46.675Z,42.9
2023-03-08T16:38:02.816Z,42.8
2023-03-08T16:39:18.951Z,42.9
2023-03-08T16:40:35.083Z,42.8
2023-03-08T16:41:51.218Z,42.9
2023-03-08T16:43:07.348Z,42.9
2023-03-08T16:44:23.503Z,42.9
2023-03-08T16:45:39.635Z,43
2023-03-08T16:46:55.764Z,43
2023-03-08T16:48:11.898Z,43
2023-03-08T16:49:28.031Z,43
2023-03-08T16:50:44.184Z,42.9
2023-03-08T16:52:00.320Z,43
2023-03-08T16:53:16.442Z,43
2023-03-08T16:54:32.572Z,43
2023-03-08T16:55:48.778Z,42.9
2023-03-08T16:57:04.013Z,42.9
2023-03-08T16:58:19.226Z,42.9
2023-03-08T16:59:35.359Z,43
2023-03-08T17:00:51.492Z,43
2023-03-08T17:02:07.634Z,42.9